• Join FlightAware (Why Join?)
  • Login
  • US Flag 
02:49PM EDT


 

Airport Tracker/Info


-or-


 

Live Flight TrackerFlight Track Log ✈ FSR411 ✈ 12-Jul-2013 ✈ KCMI - KMLI

Flight Track Log - Related Links

Times and Time Zones

All times are in EDT time to prevent confusion due to time zone crossing. See the FSR411 flight status page for this flight to view local times or setup timezone preferences in your user account.

Time Position Orientation Groundspeed Altitude Reporting Facility
EDT Latitude Longitude Course Direction KTS MPH feet Rate Location/Type
09:23AM 40.1019 -88.3650 311° West 212 244 4,100  Level Chicago Center
09:24AM 40.1514 -88.4458 309° West 268 308 7,400 3,120 Climbing Chicago Center
09:25AM 40.2036 -88.5269 310° West 286 329 10,600 2,760 Climbing Chicago Center
09:26AM 40.2786 -88.6433 310° West 354 407 13,200 1,620 Climbing Chicago Center
09:27AM 40.3472 -88.7494 310° West 377 434 14,000 360 Climbing Chicago Center
09:28AM 40.3441 -88.7472 311° West  Level Estimated
09:28AM 40.4178 -88.8589 310° West 384 442 14,000  Level Chicago Center
09:29AM 40.4861 -88.9628 311° West 382 440 14,000  Level Chicago Center
09:30AM 40.5536 -89.0694 310° West 381 438 14,000  Level Chicago Center
09:31AM 40.6206 -89.1756 310° West 379 436 14,000  Level Chicago Center
09:32AM 40.7008 -89.3014 310° West 376 433 14,000  Level Chicago Center
09:33AM 40.7681 -89.4089 310° West 379 436 14,000  Level Chicago Center
09:34AM 40.8361 -89.5161 310° West 385 443 14,000  Level Chicago Center
09:35AM 40.8969 -89.6119 310° West 349 402 14,000 -60 Level Chicago Center
09:36AM 40.9344 -89.7219 294° West 351 404 13,900 -660 Descending Chicago Center
09:38AM 40.9275 -89.8725 267° West 347 399 12,700 -960 Descending Chicago Center
09:39AM 40.9389 -89.9931 277° West 344 396 12,000 -600 Descending Chicago Center
09:40AM 41.0097 -90.0708 320° Northwest 336 387 11,500 -540 Descending Chicago Center
09:41AM 41.0861 -90.1422 325° Northwest 336 387 11,000 -300 Descending Chicago Center
09:42AM 41.1433 -90.2286 311° West 313 360 11,000 -600 Level Chicago Center
09:43AM 41.2047 -90.3297 309° West 296 341 9,800 -1,380 Descending Chicago Center
09:44AM 41.2547 -90.4122 309° West 290 334 8,200 -1,800 Descending Chicago Center
09:45AM 41.3056 -90.4906 311° West 283 326 6,200 -1,620 Descending Chicago Center
09:46AM 41.3511 -90.5642 310° West 264 304 4,900 -1,260 Descending Chicago Center
09:47AM 41.3875 -90.6306 306° West 231 266 3,700 -1,080 Descending Chicago Center
09:48AM 41.4322 -90.6428 348° North 204 235 2,700 -840 Descending Chicago Center
09:49AM 41.4550 -90.5967 57° Northeast 170 196 2,000 -960 Descending Chicago Center
09:50AM 41.4511 -90.5386 95° East 148 170 800 -720 Descending Chicago Center
09:51AM 41.4511 -90.4944 90° East 142 163 600 -240 Descending Chicago Center